sensor_id;sensor_type;location;lat;lon;timestamp;P1;durP1;ratioP1;P2;durP2;ratioP2
83562;SDS011;73535;52.500;13.482;2023-12-29T00:01:08;3.08;;;1.63;;
83562;SDS011;73535;52.500;13.482;2023-12-29T00:03:33;3.30;;;1.50;;
83562;SDS011;73535;52.500;13.482;2023-12-29T00:06:02;4.50;;;1.60;;
83562;SDS011;73535;52.500;13.482;2023-12-29T00:08:27;2.67;;;1.50;;
83562;SDS011;73535;52.500;13.482;2023-12-29T00:10:52;3.28;;;1.50;;
83562;SDS011;73535;52.500;13.482;2023-12-29T00:13:18;3.30;;;1.40;;
83562;SDS011;73535;52.500;13.482;2023-12-29T00:15:47;2.80;;;1.70;;
83562;SDS011;73535;52.500;13.482;2023-12-29T00:18:15;2.72;;;1.45;;
83562;SDS011;73535;52.500;13.482;2023-12-29T00:20:40;2.85;;;1.50;;
83562;SDS011;73535;52.500;13.482;2023-12-29T00:23:05;2.42;;;1.60;;
83562;SDS011;73535;52.500;13.482;2023-12-29T00:25:31;3.70;;;1.58;;
83562;SDS011;73535;52.500;13.482;2023-12-29T00:27:56;3.45;;;1.70;;
83562;SDS011;73535;52.500;13.482;2023-12-29T00:30:22;2.97;;;1.60;;
83562;SDS011;73535;52.500;13.482;2023-12-29T00:32:47;3.95;;;1.52;;
83562;SDS011;73535;52.500;13.482;2023-12-29T00:35:12;2.90;;;1.42;;
83562;SDS011;73535;52.500;13.482;2023-12-29T00:37:38;3.63;;;1.58;;
83562;SDS011;73535;52.500;13.482;2023-12-29T00:40:03;5.65;;;1.83;;
83562;SDS011;73535;52.500;13.482;2023-12-29T00:42:30;2.70;;;1.50;;
83562;SDS011;73535;52.500;13.482;2023-12-29T00:44:55;5.55;;;1.65;;
83562;SDS011;73535;52.500;13.482;2023-12-29T00:47:20;2.90;;;1.52;;
83562;SDS011;73535;52.500;13.482;2023-12-29T00:49:48;2.58;;;1.70;;
83562;SDS011;73535;52.500;13.482;2023-12-29T00:52:13;2.58;;;1.55;;
83562;SDS011;73535;52.500;13.482;2023-12-29T00:54:39;4.50;;;1.50;;
83562;SDS011;73535;52.500;13.482;2023-12-29T00:57:05;3.22;;;1.58;;
83562;SDS011;73535;52.500;13.482;2023-12-29T00:59:30;6.65;;;2.03;;
83562;SDS011;73535;52.500;13.482;2023-12-29T01:01:55;3.63;;;1.30;;
83562;SDS011;73535;52.500;13.482;2023-12-29T01:04:20;4.28;;;1.40;;
83562;SDS011;73535;52.500;13.482;2023-12-29T01:06:45;2.90;;;1.85;;
83562;SDS011;73535;52.500;13.482;2023-12-29T01:09:11;4.07;;;1.50;;
83562;SDS011;73535;52.500;13.482;2023-12-29T01:11:36;4.32;;;1.55;;
83562;SDS011;73535;52.500;13.482;2023-12-29T01:14:02;3.00;;;1.63;;
83562;SDS011;73535;52.500;13.482;2023-12-29T01:16:27;3.97;;;1.55;;
83562;SDS011;73535;52.500;13.482;2023-12-29T01:18:52;3.42;;;1.63;;
83562;SDS011;73535;52.500;13.482;2023-12-29T01:21:17;3.67;;;1.30;;
83562;SDS011;73535;52.500;13.482;2023-12-29T01:23:43;2.45;;;1.45;;
83562;SDS011;73535;52.500;13.482;2023-12-29T01:26:08;2.78;;;1.50;;
83562;SDS011;73535;52.500;13.482;2023-12-29T01:28:34;2.25;;;1.40;;
83562;SDS011;73535;52.500;13.482;2023-12-29T01:30:59;1.60;;;1.20;;
83562;SDS011;73535;52.500;13.482;2023-12-29T01:33:24;1.92;;;1.35;;
83562;SDS011;73535;52.500;13.482;2023-12-29T01:35:49;4.20;;;1.30;;
83562;SDS011;73535;52.500;13.482;2023-12-29T01:38:15;3.78;;;1.60;;
83562;SDS011;73535;52.500;13.482;2023-12-29T01:40:44;4.05;;;1.40;;
83562;SDS011;73535;52.500;13.482;2023-12-29T01:43:12;2.88;;;1.40;;
83562;SDS011;73535;52.500;13.482;2023-12-29T01:45:38;3.28;;;1.52;;
83562;SDS011;73535;52.500;13.482;2023-12-29T01:48:03;2.45;;;1.33;;
83562;SDS011;73535;52.500;13.482;2023-12-29T01:50:29;2.17;;;1.33;;
83562;SDS011;73535;52.500;13.482;2023-12-29T01:52:54;3.40;;;1.58;;
83562;SDS011;73535;52.500;13.482;2023-12-29T01:55:22;3.60;;;1.42;;
83562;SDS011;73535;52.500;13.482;2023-12-29T01:57:50;2.53;;;1.25;;
83562;SDS011;73535;52.500;13.482;2023-12-29T02:00:16;2.92;;;1.40;;
83562;SDS011;73535;52.500;13.482;2023-12-29T02:02:43;2.28;;;1.23;;
83562;SDS011;73535;52.500;13.482;2023-12-29T02:05:09;2.28;;;1.45;;
83562;SDS011;73535;52.500;13.482;2023-12-29T02:07:38;1.88;;;1.58;;
83562;SDS011;73535;52.500;13.482;2023-12-29T02:12:30;2.15;;;1.48;;
83562;SDS011;73535;52.500;13.482;2023-12-29T02:14:55;8.05;;;1.58;;
83562;SDS011;73535;52.500;13.482;2023-12-29T02:17:26;3.08;;;1.08;;
83562;SDS011;73535;52.500;13.482;2023-12-29T02:19:56;3.10;;;1.50;;
83562;SDS011;73535;52.500;13.482;2023-12-29T02:22:22;2.83;;;1.27;;
83562;SDS011;73535;52.500;13.482;2023-12-29T02:24:48;1.92;;;1.33;;
83562;SDS011;73535;52.500;13.482;2023-12-29T02:30:18;2.30;;;1.23;;
83562;SDS011;73535;52.500;13.482;2023-12-29T02:33:00;2.25;;;1.40;;
83562;SDS011;73535;52.500;13.482;2023-12-29T02:35:31;2.92;;;1.20;;
83562;SDS011;73535;52.500;13.482;2023-12-29T02:37:59;2.63;;;1.38;;
83562;SDS011;73535;52.500;13.482;2023-12-29T02:40:25;1.95;;;1.15;;
83562;SDS011;73535;52.500;13.482;2023-12-29T02:42:51;2.70;;;1.25;;
83562;SDS011;73535;52.500;13.482;2023-12-29T02:45:16;2.33;;;1.35;;
83562;SDS011;73535;52.500;13.482;2023-12-29T02:50:08;1.60;;;1.13;;
83562;SDS011;73535;52.500;13.482;2023-12-29T02:52:34;3.08;;;1.33;;
83562;SDS011;73535;52.500;13.482;2023-12-29T02:54:59;1.67;;;1.50;;
83562;SDS011;73535;52.500;13.482;2023-12-29T02:57:24;1.63;;;1.10;;
83562;SDS011;73535;52.500;13.482;2023-12-29T02:59:49;2.08;;;1.27;;
83562;SDS011;73535;52.500;13.482;2023-12-29T03:02:15;1.40;;;1.30;;
83562;SDS011;73535;52.500;13.482;2023-12-29T03:04:40;3.40;;;1.20;;
83562;SDS011;73535;52.500;13.482;2023-12-29T03:07:05;1.90;;;1.50;;
83562;SDS011;73535;52.500;13.482;2023-12-29T03:09:31;1.83;;;1.25;;
83562;SDS011;73535;52.500;13.482;2023-12-29T03:11:56;1.83;;;1.20;;
83562;SDS011;73535;52.500;13.482;2023-12-29T03:14:21;2.63;;;1.00;;
83562;SDS011;73535;52.500;13.482;2023-12-29T03:16:46;1.38;;;1.10;;
83562;SDS011;73535;52.500;13.482;2023-12-29T03:19:11;3.17;;;1.40;;
83562;SDS011;73535;52.500;13.482;2023-12-29T03:21:37;2.25;;;1.10;;
83562;SDS011;73535;52.500;13.482;2023-12-29T03:24:02;1.40;;;1.10;;
83562;SDS011;73535;52.500;13.482;2023-12-29T03:26:27;1.92;;;1.20;;
83562;SDS011;73535;52.500;13.482;2023-12-29T03:28:53;1.88;;;1.00;;
83562;SDS011;73535;52.500;13.482;2023-12-29T03:31:19;2.53;;;0.95;;
83562;SDS011;73535;52.500;13.482;2023-12-29T03:33:44;2.03;;;1.27;;
83562;SDS011;73535;52.500;13.482;2023-12-29T03:36:10;3.25;;;1.25;;
83562;SDS011;73535;52.500;13.482;2023-12-29T03:38:35;3.47;;;1.08;;
83562;SDS011;73535;52.500;13.482;2023-12-29T03:41:01;1.92;;;1.00;;
83562;SDS011;73535;52.500;13.482;2023-12-29T03:43:26;2.58;;;1.10;;
83562;SDS011;73535;52.500;13.482;2023-12-29T03:45:51;1.55;;;1.15;;
83562;SDS011;73535;52.500;13.482;2023-12-29T03:48:17;1.73;;;0.95;;
83562;SDS011;73535;52.500;13.482;2023-12-29T03:50:42;2.03;;;1.10;;
83562;SDS011;73535;52.500;13.482;2023-12-29T03:53:07;1.58;;;0.90;;
83562;SDS011;73535;52.500;13.482;2023-12-29T03:55:33;2.25;;;1.27;;
83562;SDS011;73535;52.500;13.482;2023-12-29T03:57:58;1.70;;;0.80;;
83562;SDS011;73535;52.500;13.482;2023-12-29T04:00:23;2.65;;;1.10;;
83562;SDS011;73535;52.500;13.482;2023-12-29T04:02:49;2.65;;;1.00;;
83562;SDS011;73535;52.500;13.482;2023-12-29T04:05:14;2.70;;;1.08;;
83562;SDS011;73535;52.500;13.482;2023-12-29T04:07:39;1.60;;;1.20;;
83562;SDS011;73535;52.500;13.482;2023-12-29T04:10:05;1.33;;;0.90;;
83562;SDS011;73535;52.500;13.482;2023-12-29T04:12:31;1.90;;;0.93;;
83562;SDS011;73535;52.500;13.482;2023-12-29T04:14:56;1.42;;;0.88;;
83562;SDS011;73535;52.500;13.482;2023-12-29T04:17:21;1.05;;;0.90;;
83562;SDS011;73535;52.500;13.482;2023-12-29T04:19:46;1.73;;;0.80;;
83562;SDS011;73535;52.500;13.482;2023-12-29T04:22:12;2.45;;;1.08;;
83562;SDS011;73535;52.500;13.482;2023-12-29T04:24:37;2.85;;;0.93;;
83562;SDS011;73535;52.500;13.482;2023-12-29T04:27:03;2.25;;;0.90;;
83562;SDS011;73535;52.500;13.482;2023-12-29T04:29:28;2.13;;;1.00;;
83562;SDS011;73535;52.500;13.482;2023-12-29T04:31:53;0.95;;;0.90;;
83562;SDS011;73535;52.500;13.482;2023-12-29T04:34:19;1.20;;;0.80;;
83562;SDS011;73535;52.500;13.482;2023-12-29T04:36:44;5.57;;;0.90;;
83562;SDS011;73535;52.500;13.482;2023-12-29T04:39:09;2.58;;;0.70;;
83562;SDS011;73535;52.500;13.482;2023-12-29T04:41:34;1.70;;;0.85;;
83562;SDS011;73535;52.500;13.482;2023-12-29T04:44:00;2.15;;;1.08;;
83562;SDS011;73535;52.500;13.482;2023-12-29T04:46:25;1.05;;;0.70;;
83562;SDS011;73535;52.500;13.482;2023-12-29T04:48:50;2.13;;;0.80;;
83562;SDS011;73535;52.500;13.482;2023-12-29T04:51:16;1.80;;;0.80;;
83562;SDS011;73535;52.500;13.482;2023-12-29T04:53:41;1.80;;;0.85;;
83562;SDS011;73535;52.500;13.482;2023-12-29T04:56:06;1.23;;;0.70;;
83562;SDS011;73535;52.500;13.482;2023-12-29T04:58:31;1.20;;;0.65;;
83562;SDS011;73535;52.500;13.482;2023-12-29T05:00:56;1.92;;;0.70;;
83562;SDS011;73535;52.500;13.482;2023-12-29T05:03:22;1.05;;;0.65;;
83562;SDS011;73535;52.500;13.482;2023-12-29T05:05:47;2.17;;;0.70;;
83562;SDS011;73535;52.500;13.482;2023-12-29T05:08:12;1.25;;;0.82;;
83562;SDS011;73535;52.500;13.482;2023-12-29T05:10:37;1.02;;;0.65;;
83562;SDS011;73535;52.500;13.482;2023-12-29T05:13:03;1.52;;;0.80;;
83562;SDS011;73535;52.500;13.482;2023-12-29T05:15:28;0.90;;;0.60;;
83562;SDS011;73535;52.500;13.482;2023-12-29T05:17:53;0.93;;;0.52;;
83562;SDS011;73535;52.500;13.482;2023-12-29T05:20:19;1.98;;;0.73;;
83562;SDS011;73535;52.500;13.482;2023-12-29T05:22:44;2.08;;;0.85;;
83562;SDS011;73535;52.500;13.482;2023-12-29T05:25:09;1.67;;;0.80;;
83562;SDS011;73535;52.500;13.482;2023-12-29T05:27:35;1.23;;;0.60;;
83562;SDS011;73535;52.500;13.482;2023-12-29T05:30:00;2.05;;;0.85;;
83562;SDS011;73535;52.500;13.482;2023-12-29T05:32:26;1.65;;;0.60;;
83562;SDS011;73535;52.500;13.482;2023-12-29T05:34:51;1.15;;;0.68;;
83562;SDS011;73535;52.500;13.482;2023-12-29T05:37:16;2.10;;;0.50;;
83562;SDS011;73535;52.500;13.482;2023-12-29T05:39:42;1.15;;;0.60;;
83562;SDS011;73535;52.500;13.482;2023-12-29T05:42:07;2.92;;;0.68;;
83562;SDS011;73535;52.500;13.482;2023-12-29T05:44:35;1.55;;;0.80;;
83562;SDS011;73535;52.500;13.482;2023-12-29T05:47:00;0.70;;;0.60;;
83562;SDS011;73535;52.500;13.482;2023-12-29T05:49:26;1.48;;;0.65;;
83562;SDS011;73535;52.500;13.482;2023-12-29T05:51:51;1.05;;;0.60;;
83562;SDS011;73535;52.500;13.482;2023-12-29T05:54:17;1.13;;;0.60;;
83562;SDS011;73535;52.500;13.482;2023-12-29T05:56:42;0.85;;;0.65;;
83562;SDS011;73535;52.500;13.482;2023-12-29T05:59:08;3.60;;;0.70;;
83562;SDS011;73535;52.500;13.482;2023-12-29T06:01:33;1.17;;;0.70;;
83562;SDS011;73535;52.500;13.482;2023-12-29T06:03:58;4.60;;;0.90;;
83562;SDS011;73535;52.500;13.482;2023-12-29T06:06:24;1.15;;;0.70;;
83562;SDS011;73535;52.500;13.482;2023-12-29T06:08:49;1.58;;;0.73;;
83562;SDS011;73535;52.500;13.482;2023-12-29T06:11:15;3.22;;;0.75;;
83562;SDS011;73535;52.500;13.482;2023-12-29T06:13:44;2.53;;;0.70;;
83562;SDS011;73535;52.500;13.482;2023-12-29T06:16:09;2.08;;;0.73;;
83562;SDS011;73535;52.500;13.482;2023-12-29T06:18:34;3.53;;;1.00;;
83562;SDS011;73535;52.500;13.482;2023-12-29T06:21:01;1.73;;;0.50;;
83562;SDS011;73535;52.500;13.482;2023-12-29T06:23:27;2.33;;;0.70;;
83562;SDS011;73535;52.500;13.482;2023-12-29T06:25:53;1.65;;;0.57;;
83562;SDS011;73535;52.500;13.482;2023-12-29T06:28:18;1.42;;;0.77;;
83562;SDS011;73535;52.500;13.482;2023-12-29T06:30:43;1.42;;;0.70;;
83562;SDS011;73535;52.500;13.482;2023-12-29T06:33:08;0.93;;;0.60;;
83562;SDS011;73535;52.500;13.482;2023-12-29T06:35:34;1.15;;;0.63;;
83562;SDS011;73535;52.500;13.482;2023-12-29T06:37:59;1.40;;;0.70;;
83562;SDS011;73535;52.500;13.482;2023-12-29T06:40:24;1.83;;;0.80;;
83562;SDS011;73535;52.500;13.482;2023-12-29T06:42:49;1.98;;;0.70;;
83562;SDS011;73535;52.500;13.482;2023-12-29T06:45:15;2.25;;;0.75;;
83562;SDS011;73535;52.500;13.482;2023-12-29T06:47:40;1.27;;;1.00;;
83562;SDS011;73535;52.500;13.482;2023-12-29T06:50:05;2.58;;;0.90;;
83562;SDS011;73535;52.500;13.482;2023-12-29T06:54:59;2.00;;;0.75;;
83562;SDS011;73535;52.500;13.482;2023-12-29T06:59:50;2.17;;;0.90;;
83562;SDS011;73535;52.500;13.482;2023-12-29T07:02:15;1.75;;;0.70;;
83562;SDS011;73535;52.500;13.482;2023-12-29T07:04:41;1.38;;;1.00;;
83562;SDS011;73535;52.500;13.482;2023-12-29T07:07:07;1.65;;;0.68;;
83562;SDS011;73535;52.500;13.482;2023-12-29T07:09:33;1.90;;;0.77;;
83562;SDS011;73535;52.500;13.482;2023-12-29T07:11:58;1.77;;;1.10;;
83562;SDS011;73535;52.500;13.482;2023-12-29T07:14:23;1.17;;;0.80;;
83562;SDS011;73535;52.500;13.482;2023-12-29T07:16:48;1.27;;;0.82;;
83562;SDS011;73535;52.500;13.482;2023-12-29T07:19:14;2.92;;;0.82;;
83562;SDS011;73535;52.500;13.482;2023-12-29T07:21:39;4.30;;;0.90;;
83562;SDS011;73535;52.500;13.482;2023-12-29T07:24:04;2.13;;;1.10;;
83562;SDS011;73535;52.500;13.482;2023-12-29T07:26:31;3.65;;;1.00;;
83562;SDS011;73535;52.500;13.482;2023-12-29T07:28:58;1.65;;;1.00;;
83562;SDS011;73535;52.500;13.482;2023-12-29T07:31:23;1.88;;;0.85;;
83562;SDS011;73535;52.500;13.482;2023-12-29T07:33:49;1.98;;;1.05;;
83562;SDS011;73535;52.500;13.482;2023-12-29T07:36:14;2.90;;;0.88;;
83562;SDS011;73535;52.500;13.482;2023-12-29T07:38:39;2.08;;;0.70;;
83562;SDS011;73535;52.500;13.482;2023-12-29T07:41:05;2.97;;;1.05;;
83562;SDS011;73535;52.500;13.482;2023-12-29T07:43:31;4.20;;;2.13;;
83562;SDS011;73535;52.500;13.482;2023-12-29T07:45:56;2.75;;;1.00;;
83562;SDS011;73535;52.500;13.482;2023-12-29T07:48:21;2.72;;;0.90;;
83562;SDS011;73535;52.500;13.482;2023-12-29T07:50:47;1.40;;;0.82;;
83562;SDS011;73535;52.500;13.482;2023-12-29T07:53:12;2.55;;;0.82;;
83562;SDS011;73535;52.500;13.482;2023-12-29T07:55:38;1.73;;;0.90;;
83562;SDS011;73535;52.500;13.482;2023-12-29T07:58:04;2.05;;;1.05;;
83562;SDS011;73535;52.500;13.482;2023-12-29T08:00:30;1.40;;;1.17;;
83562;SDS011;73535;52.500;13.482;2023-12-29T08:02:55;2.50;;;1.08;;
83562;SDS011;73535;52.500;13.482;2023-12-29T08:05:20;1.95;;;1.00;;
83562;SDS011;73535;52.500;13.482;2023-12-29T08:07:45;3.72;;;1.38;;
83562;SDS011;73535;52.500;13.482;2023-12-29T08:10:11;2.65;;;1.17;;
83562;SDS011;73535;52.500;13.482;2023-12-29T08:12:36;1.73;;;1.05;;
83562;SDS011;73535;52.500;13.482;2023-12-29T08:15:02;2.13;;;1.00;;
83562;SDS011;73535;52.500;13.482;2023-12-29T08:17:28;2.17;;;0.90;;
83562;SDS011;73535;52.500;13.482;2023-12-29T08:19:53;1.40;;;0.73;;
83562;SDS011;73535;52.500;13.482;2023-12-29T08:22:21;3.40;;;1.23;;
83562;SDS011;73535;52.500;13.482;2023-12-29T08:24:47;1.20;;;0.80;;
83562;SDS011;73535;52.500;13.482;2023-12-29T08:27:12;1.38;;;0.90;;
83562;SDS011;73535;52.500;13.482;2023-12-29T08:29:38;2.55;;;1.00;;
83562;SDS011;73535;52.500;13.482;2023-12-29T08:32:04;1.73;;;0.80;;
83562;SDS011;73535;52.500;13.482;2023-12-29T08:34:29;3.33;;;1.10;;
83562;SDS011;73535;52.500;13.482;2023-12-29T08:36:54;1.40;;;0.82;;
83562;SDS011;73535;52.500;13.482;2023-12-29T08:39:20;1.88;;;1.00;;
83562;SDS011;73535;52.500;13.482;2023-12-29T08:41:46;1.67;;;0.95;;
83562;SDS011;73535;52.500;13.482;2023-12-29T08:46:36;3.10;;;1.37;;
83562;SDS011;73535;52.500;13.482;2023-12-29T08:49:02;4.28;;;1.10;;
83562;SDS011;73535;52.500;13.482;2023-12-29T08:51:27;2.00;;;0.90;;
83562;SDS011;73535;52.500;13.482;2023-12-29T08:53:53;3.38;;;0.88;;
83562;SDS011;73535;52.500;13.482;2023-12-29T08:56:18;3.83;;;0.93;;
83562;SDS011;73535;52.500;13.482;2023-12-29T08:58:44;3.10;;;1.25;;
83562;SDS011;73535;52.500;13.482;2023-12-29T09:01:09;2.25;;;1.13;;
83562;SDS011;73535;52.500;13.482;2023-12-29T09:03:34;3.10;;;1.00;;
83562;SDS011;73535;52.500;13.482;2023-12-29T09:05:59;1.45;;;0.85;;
83562;SDS011;73535;52.500;13.482;2023-12-29T09:10:52;2.25;;;1.10;;
83562;SDS011;73535;52.500;13.482;2023-12-29T09:13:17;2.45;;;0.90;;
83562;SDS011;73535;52.500;13.482;2023-12-29T09:15:43;2.67;;;1.23;;
83562;SDS011;73535;52.500;13.482;2023-12-29T09:18:08;2.65;;;0.90;;
83562;SDS011;73535;52.500;13.482;2023-12-29T09:20:35;1.33;;;0.93;;
83562;SDS011;73535;52.500;13.482;2023-12-29T09:23:00;2.22;;;0.82;;
83562;SDS011;73535;52.500;13.482;2023-12-29T09:25:25;2.40;;;1.13;;
83562;SDS011;73535;52.500;13.482;2023-12-29T09:27:51;4.03;;;1.00;;
83562;SDS011;73535;52.500;13.482;2023-12-29T09:30:17;1.75;;;1.00;;
83562;SDS011;73535;52.500;13.482;2023-12-29T09:32:42;1.92;;;0.90;;
83562;SDS011;73535;52.500;13.482;2023-12-29T09:35:07;2.55;;;1.30;;
83562;SDS011;73535;52.500;13.482;2023-12-29T09:37:33;3.13;;;1.00;;
83562;SDS011;73535;52.500;13.482;2023-12-29T09:39:58;3.03;;;1.08;;
83562;SDS011;73535;52.500;13.482;2023-12-29T09:42:23;4.10;;;1.50;;
83562;SDS011;73535;52.500;13.482;2023-12-29T09:44:52;2.17;;;0.93;;
83562;SDS011;73535;52.500;13.482;2023-12-29T09:47:21;2.35;;;0.88;;
83562;SDS011;73535;52.500;13.482;2023-12-29T09:49:51;2.05;;;0.90;;
83562;SDS011;73535;52.500;13.482;2023-12-29T09:52:18;3.90;;;1.10;;
83562;SDS011;73535;52.500;13.482;2023-12-29T09:54:46;2.92;;;1.00;;
83562;SDS011;73535;52.500;13.482;2023-12-29T09:57:16;3.00;;;1.23;;
83562;SDS011;73535;52.500;13.482;2023-12-29T09:59:43;3.47;;;1.20;;
83562;SDS011;73535;52.500;13.482;2023-12-29T10:02:13;3.45;;;1.10;;
83562;SDS011;73535;52.500;13.482;2023-12-29T10:04:40;4.60;;;1.05;;
83562;SDS011;73535;52.500;13.482;2023-12-29T10:07:06;1.55;;;0.80;;
83562;SDS011;73535;52.500;13.482;2023-12-29T10:09:37;3.60;;;1.05;;
83562;SDS011;73535;52.500;13.482;2023-12-29T10:12:03;1.92;;;0.85;;
83562;SDS011;73535;52.500;13.482;2023-12-29T10:14:37;2.28;;;0.80;;
83562;SDS011;73535;52.500;13.482;2023-12-29T10:17:21;3.33;;;1.17;;
83562;SDS011;73535;52.500;13.482;2023-12-29T10:20:08;3.65;;;1.45;;
83562;SDS011;73535;52.500;13.482;2023-12-29T10:23:00;2.28;;;0.80;;
83562;SDS011;73535;52.500;13.482;2023-12-29T10:25:41;3.35;;;0.93;;
83562;SDS011;73535;52.500;13.482;2023-12-29T10:28:07;3.50;;;0.90;;
83562;SDS011;73535;52.500;13.482;2023-12-29T10:30:34;4.93;;;1.02;;
83562;SDS011;73535;52.500;13.482;2023-12-29T10:32:59;2.60;;;0.98;;
83562;SDS011;73535;52.500;13.482;2023-12-29T10:35:25;5.30;;;1.48;;
83562;SDS011;73535;52.500;13.482;2023-12-29T10:37:51;2.83;;;1.33;;
83562;SDS011;73535;52.500;13.482;2023-12-29T10:40:17;2.13;;;0.77;;
83562;SDS011;73535;52.500;13.482;2023-12-29T10:42:55;1.58;;;1.02;;
83562;SDS011;73535;52.500;13.482;2023-12-29T10:45:22;3.85;;;0.90;;
83562;SDS011;73535;52.500;13.482;2023-12-29T10:47:49;5.30;;;1.10;;
83562;SDS011;73535;52.500;13.482;2023-12-29T10:50:15;3.15;;;1.13;;
83562;SDS011;73535;52.500;13.482;2023-12-29T10:52:41;4.20;;;1.10;;
83562;SDS011;73535;52.500;13.482;2023-12-29T10:55:07;4.25;;;1.33;;
83562;SDS011;73535;52.500;13.482;2023-12-29T10:57:34;3.17;;;1.20;;
83562;SDS011;73535;52.500;13.482;2023-12-29T11:00:00;2.90;;;1.13;;
83562;SDS011;73535;52.500;13.482;2023-12-29T11:02:26;3.22;;;0.80;;
83562;SDS011;73535;52.500;13.482;2023-12-29T11:05:00;2.63;;;1.00;;
83562;SDS011;73535;52.500;13.482;2023-12-29T11:10:02;3.05;;;0.80;;
83562;SDS011;73535;52.500;13.482;2023-12-29T11:12:31;3.45;;;1.20;;
83562;SDS011;73535;52.500;13.482;2023-12-29T11:14:57;2.10;;;0.90;;
83562;SDS011;73535;52.500;13.482;2023-12-29T11:17:23;3.15;;;1.17;;
83562;SDS011;73535;52.500;13.482;2023-12-29T11:19:52;2.92;;;1.05;;
83562;SDS011;73535;52.500;13.482;2023-12-29T11:22:17;5.35;;;1.30;;
83562;SDS011;73535;52.500;13.482;2023-12-29T11:24:45;2.60;;;1.25;;
83562;SDS011;73535;52.500;13.482;2023-12-29T11:27:11;2.72;;;0.93;;
83562;SDS011;73535;52.500;13.482;2023-12-29T11:29:37;3.28;;;0.88;;
83562;SDS011;73535;52.500;13.482;2023-12-29T11:32:06;2.45;;;1.10;;
83562;SDS011;73535;52.500;13.482;2023-12-29T11:34:41;1.83;;;1.00;;
83562;SDS011;73535;52.500;13.482;2023-12-29T11:39:58;4.15;;;1.00;;
83562;SDS011;73535;52.500;13.482;2023-12-29T11:42:40;2.83;;;0.70;;
83562;SDS011;73535;52.500;13.482;2023-12-29T11:45:25;2.90;;;1.00;;
83562;SDS011;73535;52.500;13.482;2023-12-29T11:47:53;3.17;;;1.25;;
83562;SDS011;73535;52.500;13.482;2023-12-29T11:50:27;4.40;;;1.20;;
83562;SDS011;73535;52.500;13.482;2023-12-29T11:53:03;2.83;;;1.02;;
83562;SDS011;73535;52.500;13.482;2023-12-29T11:55:29;2.55;;;1.30;;
83562;SDS011;73535;52.500;13.482;2023-12-29T11:57:56;3.88;;;1.00;;
83562;SDS011;73535;52.500;13.482;2023-12-29T12:00:40;3.00;;;0.95;;
83562;SDS011;73535;52.500;13.482;2023-12-29T12:03:13;3.55;;;1.02;;
83562;SDS011;73535;52.500;13.482;2023-12-29T12:05:47;4.43;;;1.00;;
83562;SDS011;73535;52.500;13.482;2023-12-29T12:08:34;3.17;;;1.10;;
83562;SDS011;73535;52.500;13.482;2023-12-29T12:13:53;3.25;;;1.00;;
83562;SDS011;73535;52.500;13.482;2023-12-29T12:16:46;3.00;;;1.20;;
83562;SDS011;73535;52.500;13.482;2023-12-29T12:19:10;3.17;;;1.10;;
83562;SDS011;73535;52.500;13.482;2023-12-29T12:21:35;5.85;;;1.38;;
83562;SDS011;73535;52.500;13.482;2023-12-29T12:24:03;2.25;;;0.90;;
83562;SDS011;73535;52.500;13.482;2023-12-29T12:26:28;3.08;;;1.00;;
83562;SDS011;73535;52.500;13.482;2023-12-29T12:28:55;3.40;;;1.20;;
83562;SDS011;73535;52.500;13.482;2023-12-29T12:31:20;2.95;;;1.42;;
83562;SDS011;73535;52.500;13.482;2023-12-29T12:33:55;2.17;;;0.85;;
83562;SDS011;73535;52.500;13.482;2023-12-29T12:36:21;1.83;;;0.80;;
83562;SDS011;73535;52.500;13.482;2023-12-29T12:38:51;2.38;;;1.00;;
83562;SDS011;73535;52.500;13.482;2023-12-29T12:41:17;2.45;;;1.00;;
83562;SDS011;73535;52.500;13.482;2023-12-29T12:43:43;2.30;;;1.00;;
83562;SDS011;73535;52.500;13.482;2023-12-29T12:46:18;1.75;;;1.02;;
83562;SDS011;73535;52.500;13.482;2023-12-29T12:48:48;5.88;;;1.38;;
83562;SDS011;73535;52.500;13.482;2023-12-29T12:51:14;1.63;;;0.80;;
83562;SDS011;73535;52.500;13.482;2023-12-29T12:53:40;4.03;;;1.00;;
83562;SDS011;73535;52.500;13.482;2023-12-29T12:56:12;5.20;;;1.05;;
83562;SDS011;73535;52.500;13.482;2023-12-29T12:58:38;4.10;;;1.23;;
83562;SDS011;73535;52.500;13.482;2023-12-29T13:01:03;4.03;;;1.80;;
83562;SDS011;73535;52.500;13.482;2023-12-29T13:03:29;2.38;;;0.90;;
83562;SDS011;73535;52.500;13.482;2023-12-29T13:05:55;3.53;;;1.13;;
83562;SDS011;73535;52.500;13.482;2023-12-29T13:08:23;3.70;;;1.10;;
83562;SDS011;73535;52.500;13.482;2023-12-29T13:10:48;3.88;;;1.00;;
83562;SDS011;73535;52.500;13.482;2023-12-29T13:13:13;3.00;;;0.98;;
83562;SDS011;73535;52.500;13.482;2023-12-29T13:15:48;3.50;;;1.33;;
83562;SDS011;73535;52.500;13.482;2023-12-29T13:18:14;4.07;;;1.38;;
83562;SDS011;73535;52.500;13.482;2023-12-29T13:20:43;3.17;;;1.80;;
83562;SDS011;73535;52.500;13.482;2023-12-29T13:23:10;2.88;;;1.30;;
83562;SDS011;73535;52.500;13.482;2023-12-29T13:25:36;2.25;;;1.00;;
83562;SDS011;73535;52.500;13.482;2023-12-29T13:28:04;2.00;;;1.20;;
83562;SDS011;73535;52.500;13.482;2023-12-29T13:30:31;1.85;;;0.90;;
83562;SDS011;73535;52.500;13.482;2023-12-29T13:32:56;1.58;;;1.15;;
83562;SDS011;73535;52.500;13.482;2023-12-29T13:35:24;2.40;;;0.90;;
83562;SDS011;73535;52.500;13.482;2023-12-29T13:37:55;3.90;;;1.25;;
83562;SDS011;73535;52.500;13.482;2023-12-29T13:40:27;2.72;;;1.10;;
83562;SDS011;73535;52.500;13.482;2023-12-29T13:43:06;2.20;;;1.00;;
83562;SDS011;73535;52.500;13.482;2023-12-29T13:45:34;1.90;;;1.10;;
83562;SDS011;73535;52.500;13.482;2023-12-29T13:48:01;1.92;;;0.90;;
83562;SDS011;73535;52.500;13.482;2023-12-29T13:52:52;1.83;;;0.90;;
83562;SDS011;73535;52.500;13.482;2023-12-29T13:55:21;3.53;;;1.00;;
83562;SDS011;73535;52.500;13.482;2023-12-29T13:57:48;2.35;;;1.00;;
83562;SDS011;73535;52.500;13.482;2023-12-29T14:00:14;2.20;;;1.05;;
83562;SDS011;73535;52.500;13.482;2023-12-29T14:02:40;2.22;;;1.23;;
83562;SDS011;73535;52.500;13.482;2023-12-29T14:05:48;1.60;;;0.98;;
83562;SDS011;73535;52.500;13.482;2023-12-29T14:08:17;0.82;;;0.70;;
83562;SDS011;73535;52.500;13.482;2023-12-29T14:10:48;1.80;;;1.00;;
83562;SDS011;73535;52.500;13.482;2023-12-29T14:13:13;2.90;;;1.00;;
83562;SDS011;73535;52.500;13.482;2023-12-29T14:15:40;2.90;;;1.00;;
83562;SDS011;73535;52.500;13.482;2023-12-29T14:20:57;1.58;;;0.90;;
83562;SDS011;73535;52.500;13.482;2023-12-29T14:23:22;2.47;;;1.30;;
83562;SDS011;73535;52.500;13.482;2023-12-29T14:25:47;4.45;;;1.02;;
83562;SDS011;73535;52.500;13.482;2023-12-29T14:28:19;1.17;;;0.82;;
83562;SDS011;73535;52.500;13.482;2023-12-29T14:30:47;1.75;;;1.05;;
83562;SDS011;73535;52.500;13.482;2023-12-29T14:33:12;2.20;;;1.00;;
83562;SDS011;73535;52.500;13.482;2023-12-29T14:35:37;2.42;;;0.73;;
83562;SDS011;73535;52.500;13.482;2023-12-29T14:38:03;1.30;;;0.80;;
83562;SDS011;73535;52.500;13.482;2023-12-29T14:40:29;1.67;;;0.93;;
83562;SDS011;73535;52.500;13.482;2023-12-29T14:42:54;1.00;;;0.60;;
83562;SDS011;73535;52.500;13.482;2023-12-29T14:45:19;1.13;;;0.75;;
83562;SDS011;73535;52.500;13.482;2023-12-29T14:47:45;1.38;;;0.90;;
83562;SDS011;73535;52.500;13.482;2023-12-29T14:50:16;1.42;;;0.77;;
83562;SDS011;73535;52.500;13.482;2023-12-29T14:52:42;1.80;;;0.70;;
83562;SDS011;73535;52.500;13.482;2023-12-29T14:55:07;2.10;;;0.75;;
83562;SDS011;73535;52.500;13.482;2023-12-29T14:57:33;1.20;;;0.73;;
83562;SDS011;73535;52.500;13.482;2023-12-29T14:59:58;2.47;;;1.00;;
83562;SDS011;73535;52.500;13.482;2023-12-29T15:02:23;1.52;;;0.70;;